createdAt,value
2023-03-01T00:00:35.929Z,30.9
2023-03-01T00:01:44.483Z,29.299999
2023-03-01T00:02:52.773Z,29.299999
2023-03-01T00:04:01.103Z,29.299999
2023-03-01T00:05:09.601Z,29.799999
2023-03-01T00:06:17.928Z,29.799999
2023-03-01T00:07:26.250Z,29.799999
2023-03-01T00:08:34.750Z,30.299999
2023-03-01T00:09:43.073Z,30.299999
2023-03-01T00:10:51.464Z,30.299999
2023-03-01T00:11:59.917Z,32
2023-03-01T00:13:08.242Z,32
2023-03-01T00:14:16.554Z,32
2023-03-01T00:15:25.081Z,29.700001
2023-03-01T00:16:33.612Z,29.700001
2023-03-01T00:17:41.721Z,29.700001
2023-03-01T00:18:50.229Z,28.9
2023-03-01T00:19:58.569Z,28.9
2023-03-01T00:21:06.863Z,28.9
2023-03-01T00:22:15.386Z,26.9
2023-03-01T00:23:23.728Z,26.9
2023-03-01T00:24:31.996Z,26.9
2023-03-01T00:25:40.505Z,30.200001
2023-03-01T00:26:48.829Z,30.200001
2023-03-01T00:27:57.151Z,30.200001
2023-03-01T00:29:05.696Z,30.200001
2023-03-01T00:30:14.003Z,30.200001
2023-03-01T00:31:22.323Z,30.200001
2023-03-01T00:32:30.861Z,27.799999
2023-03-01T00:33:39.169Z,27.799999
2023-03-01T00:34:47.505Z,27.799999
2023-03-01T00:35:56.040Z,29.1
2023-03-01T00:37:04.353Z,29.1
2023-03-01T00:38:12.667Z,29.1
2023-03-01T00:39:21.234Z,28.1
2023-03-01T00:40:29.507Z,28.1
2023-03-01T00:41:37.838Z,28.1
2023-03-01T00:42:46.358Z,29.799999
2023-03-01T00:43:54.677Z,29.799999
2023-03-01T00:45:02.982Z,29.799999
2023-03-01T00:46:11.564Z,27.1
2023-03-01T00:47:19.819Z,27.1
2023-03-01T00:48:28.136Z,27.1
2023-03-01T00:49:36.665Z,27.299999
2023-03-01T00:50:44.982Z,27.299999
2023-03-01T00:51:53.318Z,27.299999
2023-03-01T00:53:01.859Z,29.700001
2023-03-01T00:54:10.177Z,29.700001
2023-03-01T00:55:18.512Z,29.700001
2023-03-01T00:56:27.014Z,29.6
2023-03-01T00:57:36.336Z,29.6
2023-03-01T00:58:44.675Z,29.6
2023-03-01T00:59:53.170Z,33.400002
2023-03-01T01:01:01.482Z,33.400002
2023-03-01T01:02:09.859Z,33.400002
2023-03-01T01:03:18.320Z,33.5
2023-03-01T01:04:26.629Z,33.5
2023-03-01T01:05:34.943Z,33.5
2023-03-01T01:06:43.600Z,32.799999
2023-03-01T01:07:51.787Z,32.799999
2023-03-01T01:09:00.122Z,32.799999
2023-03-01T01:10:08.675Z,31.9
2023-03-01T01:11:17.019Z,31.9
2023-03-01T01:12:25.305Z,31.9
2023-03-01T01:13:33.848Z,33.400002
2023-03-01T01:14:42.158Z,33.400002
2023-03-01T01:15:50.551Z,33.400002
2023-03-01T01:16:59.021Z,34.200001
2023-03-01T01:18:07.357Z,34.200001
2023-03-01T01:19:15.681Z,34.200001
2023-03-01T01:20:24.195Z,35.900002
2023-03-01T01:21:32.528Z,35.900002
2023-03-01T01:22:40.839Z,35.900002
2023-03-01T01:23:49.357Z,35.5
2023-03-01T01:24:57.676Z,35.5
2023-03-01T01:26:05.989Z,35.5
2023-03-01T01:27:14.533Z,35.599998
2023-03-01T01:28:22.836Z,35.599998
2023-03-01T01:29:31.138Z,35.599998
2023-03-01T01:30:39.658Z,33.599998
2023-03-01T01:31:48.008Z,33.599998
2023-03-01T01:32:56.333Z,33.599998
2023-03-01T01:34:04.839Z,36.599998
2023-03-01T01:35:13.159Z,36.599998
2023-03-01T01:36:21.485Z,36.599998
2023-03-01T01:37:30.020Z,36.299999
2023-03-01T01:38:38.367Z,36.299999
2023-03-01T01:39:46.683Z,36.299999
2023-03-01T01:40:55.196Z,32.299999
2023-03-01T01:42:03.524Z,32.299999
2023-03-01T01:43:11.876Z,32.299999
2023-03-01T01:44:20.399Z,34.400002
2023-03-01T01:45:28.688Z,34.400002
2023-03-01T01:46:37.023Z,34.400002
2023-03-01T01:47:45.542Z,33.200001
2023-03-01T01:48:53.874Z,33.200001
2023-03-01T01:50:02.194Z,33.200001
2023-03-01T01:51:10.727Z,32.299999
2023-03-01T01:52:19.048Z,32.299999
2023-03-01T01:53:27.386Z,32.299999
2023-03-01T01:54:35.912Z,29.9
2023-03-01T01:55:44.228Z,29.9
2023-03-01T01:56:52.553Z,29.9
2023-03-01T01:58:01.080Z,28.299999
2023-03-01T01:59:09.445Z,28.299999
2023-03-01T02:00:17.746Z,28.299999
2023-03-01T02:01:26.284Z,29.200001
2023-03-01T02:02:34.699Z,29.200001
2023-03-01T02:03:43.072Z,29.200001
2023-03-01T02:04:51.452Z,30.700001
2023-03-01T02:05:59.793Z,30.700001
2023-03-01T02:07:08.105Z,30.700001
2023-03-01T02:08:16.664Z,30.299999
2023-03-01T02:09:24.955Z,30.299999
2023-03-01T02:10:33.287Z,30.299999
2023-03-01T02:11:41.805Z,29.700001
2023-03-01T02:12:50.115Z,29.700001
2023-03-01T02:13:58.432Z,29.700001
2023-03-01T02:15:07.007Z,31.299999
2023-03-01T02:16:15.306Z,31.299999
2023-03-01T02:17:23.592Z,31.299999
2023-03-01T02:18:32.120Z,33.599998
2023-03-01T02:19:40.439Z,33.599998
2023-03-01T02:20:48.752Z,33.599998
2023-03-01T02:21:57.311Z,29.9
2023-03-01T02:23:05.588Z,29.9
2023-03-01T02:24:13.911Z,29.9
2023-03-01T02:25:22.435Z,30.6
2023-03-01T02:26:31.061Z,30.6
2023-03-01T02:27:39.069Z,30.6
2023-03-01T02:28:47.585Z,30.5
2023-03-01T02:29:56.870Z,30.5
2023-03-01T02:31:04.330Z,30.5
2023-03-01T02:32:12.778Z,34.200001
2023-03-01T02:33:21.082Z,34.200001
2023-03-01T02:34:29.416Z,34.200001
2023-03-01T02:35:37.979Z,34.200001
2023-03-01T02:36:46.243Z,34.200001
2023-03-01T02:37:54.562Z,34.200001
2023-03-01T02:39:03.086Z,33.099998
2023-03-01T02:40:11.397Z,33.099998
2023-03-01T02:41:19.704Z,33.099998
2023-03-01T02:42:28.216Z,32.5
2023-03-01T02:43:36.546Z,32.5
2023-03-01T02:44:44.875Z,32.5
2023-03-01T02:45:53.402Z,35.799999
2023-03-01T02:47:01.874Z,35.799999
2023-03-01T02:48:10.021Z,35.799999
2023-03-01T02:49:18.552Z,32.099998
2023-03-01T02:50:26.872Z,32.099998
2023-03-01T02:51:35.208Z,32.099998
2023-03-01T02:52:43.734Z,35.400002
2023-03-01T02:53:52.057Z,35.400002
2023-03-01T02:55:00.359Z,35.400002
2023-03-01T02:56:08.891Z,33.5
2023-03-01T02:57:17.207Z,33.5
2023-03-01T02:58:25.506Z,33.5
2023-03-01T02:59:34.047Z,33.5
2023-03-01T03:00:42.358Z,33.5
2023-03-01T03:01:50.669Z,33.5
2023-03-01T03:02:59.221Z,34.5
2023-03-01T03:04:07.511Z,34.5
2023-03-01T03:05:15.826Z,34.5
2023-03-01T03:06:24.354Z,34
2023-03-01T03:07:32.694Z,34
2023-03-01T03:08:41.022Z,34
2023-03-01T03:09:49.543Z,31.700001
2023-03-01T03:10:57.864Z,31.700001
2023-03-01T03:12:06.183Z,31.700001
2023-03-01T03:13:14.730Z,32.599998
2023-03-01T03:14:23.055Z,32.599998
2023-03-01T03:15:31.368Z,32.599998
2023-03-01T03:16:39.946Z,34.799999
2023-03-01T03:17:48.231Z,34.799999
2023-03-01T03:18:56.560Z,34.799999
2023-03-01T03:20:05.066Z,33.900002
2023-03-01T03:21:13.376Z,33.900002
2023-03-01T03:22:21.719Z,33.900002
2023-03-01T03:23:30.223Z,33.799999
2023-03-01T03:24:38.559Z,33.799999
2023-03-01T03:25:46.878Z,33.799999
2023-03-01T03:26:55.409Z,35.099998
2023-03-01T03:28:03.729Z,35.099998
2023-03-01T03:29:12.051Z,35.099998
2023-03-01T03:30:20.581Z,34.099998
2023-03-01T03:31:28.947Z,34.099998
2023-03-01T03:32:37.216Z,34.099998
2023-03-01T03:33:45.724Z,32.299999
2023-03-01T03:34:54.092Z,32.299999
2023-03-01T03:36:02.427Z,32.299999
2023-03-01T03:37:10.893Z,33.5
2023-03-01T03:38:19.207Z,33.5
2023-03-01T03:39:27.519Z,33.5
2023-03-01T03:40:36.046Z,34.099998
2023-03-01T03:41:44.371Z,34.099998
2023-03-01T03:42:52.684Z,34.099998
2023-03-01T03:44:01.207Z,34.5
2023-03-01T03:45:09.512Z,34.5
2023-03-01T03:46:17.828Z,34.5
2023-03-01T03:47:26.362Z,36.799999
2023-03-01T03:48:34.678Z,36.799999
2023-03-01T03:49:43.005Z,36.799999
2023-03-01T03:50:51.544Z,36
2023-03-01T03:51:59.832Z,36
2023-03-01T03:53:08.148Z,36
2023-03-01T03:54:16.685Z,34.299999
2023-03-01T03:55:25.003Z,34.299999
2023-03-01T03:56:33.724Z,34.299999
2023-03-01T03:57:41.833Z,34.599998
2023-03-01T03:58:50.158Z,34.599998
2023-03-01T03:59:58.476Z,34.599998
2023-03-01T04:01:07.006Z,33.700001
2023-03-01T04:02:15.370Z,33.700001
2023-03-01T04:03:23.616Z,33.700001
2023-03-01T04:04:32.152Z,34.5
2023-03-01T04:05:40.461Z,34.5
2023-03-01T04:06:48.807Z,34.5
2023-03-01T04:07:57.302Z,34.599998
2023-03-01T04:09:05.618Z,34.599998
2023-03-01T04:10:13.927Z,34.599998
2023-03-01T04:11:22.496Z,33.700001
2023-03-01T04:12:30.777Z,33.700001
2023-03-01T04:13:39.084Z,33.700001
2023-03-01T04:14:48.712Z,32.5
2023-03-01T04:15:55.927Z,32.5
2023-03-01T04:17:04.240Z,32.5
2023-03-01T04:18:12.776Z,33
2023-03-01T04:19:21.100Z,33
2023-03-01T04:20:29.458Z,33
2023-03-01T04:21:37.932Z,35.900002
2023-03-01T04:22:46.255Z,35.900002
2023-03-01T04:23:54.552Z,35.900002
2023-03-01T04:25:03.102Z,34.200001
2023-03-01T04:26:11.421Z,34.200001
2023-03-01T04:27:19.754Z,34.200001
2023-03-01T04:28:28.283Z,35.900002
2023-03-01T04:29:36.584Z,35.900002
2023-03-01T04:30:44.926Z,35.900002
2023-03-01T04:31:53.539Z,36
2023-03-01T04:33:01.762Z,36
2023-03-01T04:34:10.096Z,36
2023-03-01T04:35:18.613Z,33.900002
2023-03-01T04:36:27.089Z,33.900002
2023-03-01T04:37:35.355Z,33.900002
2023-03-01T04:38:44.310Z,35.599998
2023-03-01T04:39:52.672Z,35.599998
2023-03-01T04:41:00.998Z,35.599998
2023-03-01T04:42:09.519Z,37.700001
2023-03-01T04:43:17.838Z,37.700001
2023-03-01T04:44:26.161Z,37.700001
2023-03-01T04:45:34.701Z,36
2023-03-01T04:46:43.004Z,36
2023-03-01T04:47:51.326Z,36
2023-03-01T04:48:59.868Z,35.700001
2023-03-01T04:50:08.175Z,35.700001
2023-03-01T04:51:16.484Z,35.700001
2023-03-01T04:52:25.003Z,38.099998
2023-03-01T04:53:33.392Z,38.099998
2023-03-01T04:54:41.722Z,38.099998
2023-03-01T04:55:50.213Z,35.900002
2023-03-01T04:56:58.565Z,35.900002
2023-03-01T04:58:06.861Z,35.900002
2023-03-01T04:59:15.399Z,37.700001
2023-03-01T05:00:23.768Z,37.700001
2023-03-01T05:01:32.025Z,37.700001
2023-03-01T05:02:40.613Z,37.5
2023-03-01T05:03:48.870Z,37.5
2023-03-01T05:04:57.187Z,37.5
2023-03-01T05:06:05.701Z,38.400002
2023-03-01T05:07:14.008Z,38.400002
2023-03-01T05:08:22.327Z,38.400002
2023-03-01T05:09:30.844Z,40.599998
2023-03-01T05:10:39.183Z,40.599998
2023-03-01T05:11:47.483Z,40.599998
2023-03-01T05:12:56.006Z,40.799999
2023-03-01T05:14:04.322Z,40.799999
2023-03-01T05:15:12.671Z,40.799999
2023-03-01T05:16:21.184Z,39
2023-03-01T05:17:29.515Z,39
2023-03-01T05:18:37.841Z,39
2023-03-01T05:19:46.370Z,41.799999
2023-03-01T05:20:54.685Z,41.799999
2023-03-01T05:22:03.064Z,41.799999
2023-03-01T05:23:11.544Z,40.799999
2023-03-01T05:24:20.863Z,40.799999
2023-03-01T05:25:29.186Z,40.799999
2023-03-01T05:26:37.732Z,43.299999
2023-03-01T05:27:46.021Z,43.299999
2023-03-01T05:28:54.335Z,43.299999
2023-03-01T05:30:02.875Z,42.799999
2023-03-01T05:31:11.202Z,42.799999
2023-03-01T05:32:19.552Z,42.799999
2023-03-01T05:33:28.035Z,41.799999
2023-03-01T05:34:36.376Z,41.799999
2023-03-01T05:35:44.808Z,41.799999
2023-03-01T05:36:53.198Z,41.900002
2023-03-01T05:38:01.524Z,41.900002
2023-03-01T05:39:09.844Z,41.900002
2023-03-01T05:40:18.373Z,45.400002
2023-03-01T05:41:26.692Z,45.400002
2023-03-01T05:42:35.031Z,45.400002
2023-03-01T05:43:43.529Z,39.700001
2023-03-01T05:44:51.858Z,39.700001
2023-03-01T05:46:00.256Z,39.700001
2023-03-01T05:47:08.695Z,41
2023-03-01T05:48:16.999Z,41
2023-03-01T05:49:25.301Z,41
2023-03-01T05:50:33.833Z,38
2023-03-01T05:51:42.150Z,38
2023-03-01T05:52:50.466Z,38
2023-03-01T05:53:58.995Z,40.700001
2023-03-01T05:55:07.324Z,40.700001
2023-03-01T05:56:15.650Z,40.700001
2023-03-01T05:57:24.178Z,44.200001
2023-03-01T05:58:32.529Z,44.200001
2023-03-01T05:59:40.842Z,44.200001
2023-03-01T06:00:49.376Z,46
2023-03-01T06:01:57.678Z,46
2023-03-01T06:03:06.010Z,46
2023-03-01T06:04:14.582Z,42.099998
2023-03-01T06:05:22.914Z,42.099998
2023-03-01T06:06:31.484Z,42.099998
2023-03-01T06:07:39.705Z,39.299999
2023-03-01T06:08:48.021Z,39.299999
2023-03-01T06:09:56.353Z,39.299999
2023-03-01T06:11:04.875Z,41.200001
2023-03-01T06:12:13.993Z,41.200001
2023-03-01T06:13:21.501Z,41.200001
2023-03-01T06:14:30.052Z,41
2023-03-01T06:15:38.424Z,41
2023-03-01T06:16:46.666Z,41
2023-03-01T06:17:55.194Z,39.799999
2023-03-01T06:19:03.511Z,39.799999
2023-03-01T06:20:11.828Z,39.799999
2023-03-01T06:21:20.360Z,42.799999
2023-03-01T06:22:28.692Z,42.799999
2023-03-01T06:23:37.021Z,42.799999
2023-03-01T06:24:45.581Z,46
2023-03-01T06:25:53.908Z,46
2023-03-01T06:27:02.206Z,46
2023-03-01T06:28:10.732Z,111
2023-03-01T06:29:19.065Z,111
2023-03-01T06:30:27.421Z,111
2023-03-01T06:31:36.001Z,50
2023-03-01T06:32:44.333Z,50
2023-03-01T06:33:52.635Z,50
2023-03-01T06:35:01.191Z,84.699997
2023-03-01T06:36:09.516Z,84.699997
2023-03-01T06:37:17.827Z,84.699997
2023-03-01T06:38:26.374Z,129.69999
2023-03-01T06:39:34.664Z,129.69999
2023-03-01T06:40:42.989Z,129.69999
2023-03-01T06:41:52.420Z,45.099998
2023-03-01T06:42:59.821Z,45.099998
2023-03-01T06:44:08.138Z,45.099998
2023-03-01T06:45:16.678Z,51.099998
2023-03-01T06:46:25.058Z,51.099998
2023-03-01T06:47:33.327Z,51.099998
2023-03-01T06:48:41.903Z,123.4
2023-03-01T06:49:50.203Z,123.4
2023-03-01T06:50:58.532Z,123.4
2023-03-01T06:52:07.048Z,57
2023-03-01T06:53:15.409Z,57
2023-03-01T06:54:23.725Z,57
2023-03-01T06:55:32.254Z,44.299999
2023-03-01T06:56:40.562Z,44.299999
2023-03-01T06:57:48.865Z,44.299999
2023-03-01T06:58:57.384Z,40.700001
2023-03-01T07:00:05.722Z,40.700001
2023-03-01T07:01:14.038Z,40.700001
2023-03-01T07:02:22.734Z,43.900002
2023-03-01T07:04:31.966Z,43.900002
2023-03-01T07:05:40.542Z,44.200001
2023-03-01T07:06:48.868Z,44.200001
2023-03-01T07:07:57.182Z,44.200001
2023-03-01T07:09:05.763Z,41.799999
2023-03-01T07:10:14.184Z,41.799999
2023-03-01T07:11:22.538Z,41.799999
2023-03-01T07:12:31.102Z,40.799999
2023-03-01T07:13:39.433Z,40.799999
2023-03-01T07:14:47.747Z,40.799999
2023-03-01T07:15:56.345Z,40.900002
2023-03-01T07:17:04.610Z,40.900002
2023-03-01T07:18:12.959Z,40.900002
2023-03-01T07:19:21.474Z,41.700001
2023-03-01T07:20:29.865Z,41.700001
2023-03-01T07:21:38.088Z,41.700001
2023-03-01T07:22:46.626Z,40.5
2023-03-01T07:23:54.949Z,40.5
2023-03-01T07:25:03.276Z,40.5
2023-03-01T07:26:11.815Z,39.400002
2023-03-01T07:27:20.143Z,39.400002
2023-03-01T07:28:28.449Z,39.400002
2023-03-01T07:29:36.981Z,39.700001
2023-03-01T07:30:45.311Z,39.700001
2023-03-01T07:31:53.687Z,39.700001
2023-03-01T07:33:02.252Z,41
2023-03-01T07:34:10.504Z,41
2023-03-01T07:35:18.797Z,41
2023-03-01T07:36:27.333Z,42.099998
2023-03-01T07:37:35.646Z,42.099998
2023-03-01T07:38:43.978Z,42.099998
2023-03-01T07:39:52.526Z,42.299999
2023-03-01T07:41:00.864Z,42.299999
2023-03-01T07:42:09.176Z,42.299999
2023-03-01T07:43:17.698Z,43.5
2023-03-01T07:44:26.007Z,43.5
2023-03-01T07:45:34.408Z,43.5
2023-03-01T07:46:42.887Z,43.400002
2023-03-01T07:47:51.215Z,43.400002
2023-03-01T07:48:59.527Z,43.400002
2023-03-01T07:50:08.475Z,41.200001
2023-03-01T07:51:16.775Z,41.200001
2023-03-01T07:52:25.118Z,41.200001
2023-03-01T07:53:33.645Z,57.599998
2023-03-01T07:54:41.974Z,57.599998
2023-03-01T07:55:50.291Z,57.599998
2023-03-01T07:56:58.831Z,63.5
2023-03-01T07:58:07.170Z,63.5
2023-03-01T07:59:15.457Z,63.5
2023-03-01T08:00:23.973Z,49.5
2023-03-01T08:01:32.336Z,49.5
2023-03-01T08:02:40.627Z,49.5
2023-03-01T08:03:49.152Z,45.5
2023-03-01T08:04:57.482Z,45.5
2023-03-01T08:06:05.877Z,45.5
2023-03-01T08:07:14.354Z,44.700001
2023-03-01T08:08:23.666Z,44.700001
2023-03-01T08:09:32.116Z,44.700001
2023-03-01T08:10:40.932Z,44
2023-03-01T08:11:49.542Z,44
2023-03-01T08:12:57.892Z,44
2023-03-01T08:14:06.453Z,43.799999
2023-03-01T08:15:14.999Z,43.799999
2023-03-01T08:16:23.359Z,43.799999
2023-03-01T08:17:32.406Z,46.200001
2023-03-01T08:18:41.018Z,46.200001
2023-03-01T08:19:49.538Z,46.200001
2023-03-01T08:20:58.067Z,44.599998
2023-03-01T08:22:06.416Z,44.599998
2023-03-01T08:23:14.710Z,44.599998
2023-03-01T08:24:23.222Z,45.900002
2023-03-01T08:25:31.561Z,45.900002
2023-03-01T08:26:39.908Z,45.900002
2023-03-01T08:27:48.434Z,41
2023-03-01T08:28:56.742Z,41
2023-03-01T08:30:05.054Z,41
2023-03-01T08:31:13.594Z,44.200001
2023-03-01T08:32:22.073Z,44.200001
2023-03-01T08:33:30.310Z,44.200001
2023-03-01T08:34:39.127Z,44.700001
2023-03-01T08:35:47.107Z,44.700001
2023-03-01T08:36:55.417Z,44.700001
2023-03-01T08:38:03.987Z,62.400002
2023-03-01T08:39:12.274Z,62.400002
2023-03-01T08:40:20.567Z,62.400002
2023-03-01T08:41:29.118Z,95.699997
2023-03-01T08:42:37.425Z,95.699997
2023-03-01T08:43:45.746Z,95.699997
2023-03-01T08:44:54.280Z,46.5
2023-03-01T08:46:02.674Z,46.5
2023-03-01T08:47:10.919Z,46.5
2023-03-01T08:48:19.452Z,40.099998
2023-03-01T08:49:27.780Z,40.099998
2023-03-01T08:50:36.104Z,40.099998
2023-03-01T08:51:44.651Z,50.400002
2023-03-01T08:52:52.964Z,50.400002
2023-03-01T08:54:01.355Z,50.400002
2023-03-01T08:55:09.825Z,39.400002
2023-03-01T08:56:18.141Z,39.400002
2023-03-01T08:57:26.500Z,39.400002
2023-03-01T08:58:35.010Z,39.400002
2023-03-01T08:59:43.308Z,39.400002
2023-03-01T09:00:51.640Z,39.400002
2023-03-01T09:02:00.210Z,36.099998
2023-03-01T09:03:08.495Z,36.099998
2023-03-01T09:04:16.814Z,36.099998
2023-03-01T09:05:25.334Z,34.700001
2023-03-01T09:06:33.739Z,34.700001
2023-03-01T09:07:41.997Z,34.700001
2023-03-01T09:08:50.556Z,33.299999
2023-03-01T09:09:58.892Z,33.299999
2023-03-01T09:11:07.194Z,33.299999
2023-03-01T09:12:15.735Z,34.400002
2023-03-01T09:13:24.061Z,34.400002
2023-03-01T09:14:32.404Z,34.400002
2023-03-01T09:15:40.953Z,31.9
2023-03-01T09:16:49.326Z,31.9
2023-03-01T09:17:57.601Z,31.9
2023-03-01T09:19:06.135Z,32.400002
2023-03-01T09:20:14.454Z,32.400002
2023-03-01T09:21:37.479Z,32.400002
2023-03-01T09:22:31.306Z,32.900002
2023-03-01T09:23:39.621Z,32.900002
2023-03-01T09:24:47.944Z,32.900002
2023-03-01T09:25:56.496Z,33
2023-03-01T09:27:04.819Z,33
2023-03-01T09:28:24.339Z,33
2023-03-01T09:29:21.644Z,33
2023-03-01T09:30:29.966Z,33
2023-03-01T09:31:38.322Z,33
2023-03-01T09:32:46.846Z,29.4
2023-03-01T09:33:55.192Z,29.4
2023-03-01T09:35:03.465Z,29.4
2023-03-01T09:36:12.004Z,31.4
2023-03-01T09:37:20.335Z,31.4
2023-03-01T09:38:28.647Z,31.4
2023-03-01T09:39:37.160Z,30.4
2023-03-01T09:40:45.467Z,30.4
2023-03-01T09:41:53.823Z,30.4
2023-03-01T09:43:02.334Z,33
2023-03-01T09:44:10.710Z,33
2023-03-01T09:45:18.968Z,33
2023-03-01T09:46:27.568Z,33.200001
2023-03-01T09:47:35.847Z,33.200001
2023-03-01T09:48:44.169Z,33.200001
2023-03-01T09:49:52.681Z,31.1
2023-03-01T09:51:00.993Z,31.1
2023-03-01T09:52:09.313Z,31.1
2023-03-01T09:53:17.842Z,30.9
2023-03-01T09:54:26.165Z,30.9
2023-03-01T09:55:34.476Z,30.9
2023-03-01T09:56:43.006Z,31.700001
2023-03-01T09:57:51.375Z,31.700001
2023-03-01T09:58:59.639Z,31.700001
2023-03-01T10:00:08.184Z,32.299999
2023-03-01T10:01:16.496Z,32.299999
2023-03-01T10:02:24.829Z,32.299999
2023-03-01T10:03:33.386Z,34.200001
2023-03-01T10:04:41.732Z,34.200001
2023-03-01T10:05:50.001Z,34.200001
2023-03-01T10:06:58.545Z,32.700001
2023-03-01T10:08:06.876Z,32.700001
2023-03-01T10:09:15.203Z,32.700001
2023-03-01T10:10:23.731Z,34.099998
2023-03-01T10:11:32.073Z,34.099998
2023-03-01T10:12:40.395Z,34.099998
2023-03-01T10:13:48.960Z,33.200001
2023-03-01T10:14:57.272Z,33.200001
2023-03-01T10:16:05.662Z,33.200001
2023-03-01T10:17:14.164Z,34
2023-03-01T10:18:22.503Z,34
2023-03-01T10:19:30.829Z,34
2023-03-01T10:20:39.350Z,33.299999
2023-03-01T10:21:47.682Z,33.299999
2023-03-01T10:22:56.057Z,33.299999
2023-03-01T10:24:04.576Z,30.9
2023-03-01T10:25:12.921Z,30.9
2023-03-01T10:26:21.231Z,30.9
2023-03-01T10:27:29.778Z,34
2023-03-01T10:28:38.102Z,34
2023-03-01T10:29:46.513Z,34
2023-03-01T10:30:55.032Z,32.299999
2023-03-01T10:32:03.349Z,32.299999
2023-03-01T10:33:11.642Z,32.299999
2023-03-01T10:34:20.189Z,30.200001
2023-03-01T10:35:28.645Z,30.200001
2023-03-01T10:36:36.847Z,30.200001
2023-03-01T10:37:45.401Z,30.700001
2023-03-01T10:38:53.722Z,30.700001
2023-03-01T10:40:02.055Z,30.700001
2023-03-01T10:41:10.586Z,33
2023-03-01T10:42:18.917Z,33
2023-03-01T10:43:27.254Z,33
2023-03-01T10:44:35.778Z,34.400002
2023-03-01T10:45:44.194Z,34.400002
2023-03-01T10:46:52.495Z,34.400002
2023-03-01T10:48:01.072Z,33.299999
2023-03-01T10:49:09.493Z,33.299999
2023-03-01T10:50:17.874Z,33.299999
2023-03-01T10:51:26.428Z,31.799999
2023-03-01T10:52:34.788Z,31.799999
2023-03-01T10:53:43.117Z,31.799999
2023-03-01T10:54:51.678Z,35
2023-03-01T10:56:00.018Z,35
2023-03-01T10:57:08.381Z,35
2023-03-01T10:58:16.991Z,31.799999
2023-03-01T10:59:25.298Z,31.799999
2023-03-01T11:00:33.694Z,31.799999
2023-03-01T11:01:42.342Z,33
2023-03-01T11:02:50.636Z,33
2023-03-01T11:03:59.008Z,33
2023-03-01T11:05:07.629Z,31.299999
2023-03-01T11:06:15.958Z,31.299999
2023-03-01T11:07:24.353Z,31.299999
2023-03-01T11:08:34.849Z,32.400002
2023-03-01T11:09:41.297Z,32.400002
2023-03-01T11:10:49.639Z,32.400002
2023-03-01T11:11:58.217Z,30.299999
2023-03-01T11:13:06.588Z,30.299999
2023-03-01T11:14:25.809Z,30.299999
2023-03-01T11:15:23.526Z,32.400002
2023-03-01T11:16:31.992Z,32.400002
2023-03-01T11:17:53.097Z,32.400002
2023-03-01T11:18:48.787Z,31.6
2023-03-01T11:20:02.440Z,31.6
2023-03-01T11:21:05.462Z,31.6
2023-03-01T11:22:14.080Z,30
2023-03-01T11:23:22.386Z,30
2023-03-01T11:24:30.730Z,30
2023-03-01T11:25:39.269Z,28.799999
2023-03-01T11:26:47.621Z,28.799999
2023-03-01T11:27:55.961Z,28.799999
2023-03-01T11:29:04.531Z,29.4
2023-03-01T11:30:12.873Z,29.4
2023-03-01T11:31:21.249Z,29.4
2023-03-01T11:32:29.847Z,31.6
2023-03-01T11:33:38.117Z,31.6
2023-03-01T11:34:46.422Z,31.6
2023-03-01T11:35:54.995Z,30.200001
2023-03-01T11:37:03.305Z,30.200001
2023-03-01T11:38:11.637Z,30.200001
2023-03-01T11:39:20.173Z,28.6
2023-03-01T11:40:28.503Z,28.6
2023-03-01T11:41:36.839Z,28.6
2023-03-01T11:42:45.435Z,29
2023-03-01T11:43:53.745Z,29
2023-03-01T11:45:02.076Z,29
2023-03-01T11:46:12.554Z,30
2023-03-01T11:47:19.110Z,30
2023-03-01T11:48:29.360Z,30
2023-03-01T11:49:35.936Z,28.700001
2023-03-01T11:50:44.235Z,28.700001
2023-03-01T11:51:52.572Z,28.700001
2023-03-01T11:53:01.128Z,30
2023-03-01T11:54:09.487Z,30
2023-03-01T11:55:17.875Z,30
2023-03-01T11:56:26.410Z,31.200001
2023-03-01T11:57:43.252Z,31.200001
2023-03-01T11:58:43.084Z,31.200001
2023-03-01T11:59:51.659Z,30
2023-03-01T12:00:59.964Z,30
2023-03-01T12:02:08.392Z,30
2023-03-01T12:03:16.922Z,28.5
2023-03-01T12:04:25.295Z,28.5
2023-03-01T12:05:33.617Z,28.5
2023-03-01T12:06:42.142Z,27.299999
2023-03-01T12:07:50.460Z,27.299999
2023-03-01T12:08:58.834Z,27.299999
2023-03-01T12:10:07.396Z,28
2023-03-01T12:11:15.785Z,28
2023-03-01T12:12:24.180Z,28
2023-03-01T12:13:32.777Z,29.700001
2023-03-01T12:14:41.142Z,29.700001
2023-03-01T12:15:49.545Z,29.700001
2023-03-01T12:16:58.264Z,28.200001
2023-03-01T12:18:06.604Z,28.200001
2023-03-01T12:19:14.978Z,28.200001
2023-03-01T12:20:23.566Z,26.700001
2023-03-01T12:21:32.328Z,26.700001
2023-03-01T12:22:40.314Z,26.700001
2023-03-01T12:23:48.854Z,26.5
2023-03-01T12:24:57.237Z,26.5
2023-03-01T12:26:05.568Z,26.5
2023-03-01T12:27:14.107Z,23.700001
2023-03-01T12:28:22.454Z,23.700001
2023-03-01T12:29:30.794Z,23.700001
2023-03-01T12:30:39.318Z,25.299999
2023-03-01T12:31:47.727Z,25.299999
2023-03-01T12:32:56.020Z,25.299999
2023-03-01T12:34:04.539Z,25.5
2023-03-01T12:35:12.916Z,25.5
2023-03-01T12:36:21.341Z,25.5
2023-03-01T12:37:30.010Z,29.700001
2023-03-01T12:38:38.315Z,29.700001
2023-03-01T12:39:46.647Z,29.700001
2023-03-01T12:40:55.234Z,29.200001
2023-03-01T12:42:03.558Z,29.200001
2023-03-01T12:43:11.890Z,29.200001
2023-03-01T12:44:20.472Z,30.700001
2023-03-01T12:45:28.848Z,30.700001
2023-03-01T12:46:37.155Z,30.700001
2023-03-01T12:47:45.777Z,29.700001
2023-03-01T12:48:54.113Z,29.700001
2023-03-01T12:50:02.465Z,29.700001
2023-03-01T12:51:11.040Z,27.4
2023-03-01T12:52:19.414Z,27.4
2023-03-01T12:53:27.811Z,27.4
2023-03-01T12:54:36.331Z,28.4
2023-03-01T12:55:44.663Z,28.4
2023-03-01T12:56:53.060Z,28.4
2023-03-01T12:58:01.579Z,29.5
2023-03-01T12:59:09.920Z,29.5
2023-03-01T13:00:18.257Z,29.5
2023-03-01T13:01:26.969Z,29.799999
2023-03-01T13:02:35.170Z,29.799999
2023-03-01T13:03:43.516Z,29.799999
2023-03-01T13:04:52.040Z,29.6
2023-03-01T13:06:00.347Z,29.6
2023-03-01T13:07:08.676Z,29.6
2023-03-01T13:08:17.195Z,29.799999
2023-03-01T13:09:25.557Z,29.799999
2023-03-01T13:10:33.904Z,29.799999
2023-03-01T13:11:42.440Z,31.6
2023-03-01T13:12:50.767Z,31.6
2023-03-01T13:13:59.094Z,31.6
2023-03-01T13:15:07.636Z,32.099998
2023-03-01T13:16:16.008Z,32.099998
2023-03-01T13:17:24.275Z,32.099998
2023-03-01T13:18:32.797Z,32.799999
2023-03-01T13:19:41.526Z,32.799999
2023-03-01T13:20:49.833Z,32.799999
2023-03-01T13:21:58.364Z,33.799999
2023-03-01T13:23:06.698Z,33.799999
2023-03-01T13:24:14.993Z,33.799999
2023-03-01T13:25:27.550Z,32.400002
2023-03-01T13:26:32.126Z,32.400002
2023-03-01T13:27:40.164Z,32.400002
2023-03-01T13:28:48.704Z,33.799999
2023-03-01T13:29:57.010Z,33.799999
2023-03-01T13:31:05.324Z,33.799999
2023-03-01T13:32:13.959Z,32.400002
2023-03-01T13:33:22.225Z,32.400002
2023-03-01T13:34:31.477Z,32.400002
2023-03-01T13:35:40.068Z,33
2023-03-01T13:36:48.448Z,33
2023-03-01T13:37:56.683Z,33
2023-03-01T13:39:05.214Z,32.299999
2023-03-01T13:40:13.600Z,32.299999
2023-03-01T13:41:21.922Z,32.299999
2023-03-01T13:42:30.409Z,33.700001
2023-03-01T13:43:38.732Z,33.700001
2023-03-01T13:44:47.059Z,33.700001
2023-03-01T13:45:55.647Z,34.599998
2023-03-01T13:47:03.941Z,34.599998